Portland, Missouri
Current Conditions -  °F | °C
As of 5:53 PM on Monday 20 Oct 2014 (Local Time) from KJEF Reporting Station
Clear Clear  
Wind Chill: 71°   Ceiling: Unl
Heat Index: 71°   Visibility: 10mi
Dew Point: 40°   Wind: 7mph
Humidity: 32%   Direction: 320°NW
Pressure: 29.99"   Gusts: NA
Location:  38.71°N, 91.72°W
Report Text: KJEF 202253Z 32006KT 10SM CLR 22/04 A2999 RMK AO2 SLP145 T02170044
Loading
Personal Weather Stations






























Interactive Weather Map
Tropical Storm Tracking
New forecast layout! Learn more

10-Day Weather Forecast

Advertisements
Track Severe Weather on mobile